sensor_id;sensor_type;location;lat;lon;timestamp;P1;durP1;ratioP1;P2;durP2;ratioP2
71667;SDS011;59504;54.806;9.640;2022-12-29T00:00:48;2.42;;;1.42;;
71667;SDS011;59504;54.806;9.640;2022-12-29T00:06:24;1.80;;;1.40;;
71667;SDS011;59504;54.806;9.640;2022-12-29T00:08:44;3.97;;;1.60;;
71667;SDS011;59504;54.806;9.640;2022-12-29T00:11:03;4.95;;;1.70;;
71667;SDS011;59504;54.806;9.640;2022-12-29T00:13:26;2.53;;;1.52;;
71667;SDS011;59504;54.806;9.640;2022-12-29T00:16:06;2.83;;;1.95;;
71667;SDS011;59504;54.806;9.640;2022-12-29T00:18:26;2.58;;;2.00;;
71667;SDS011;59504;54.806;9.640;2022-12-29T00:20:45;3.00;;;2.10;;
71667;SDS011;59504;54.806;9.640;2022-12-29T00:26:47;6.00;;;2.88;;
71667;SDS011;59504;54.806;9.640;2022-12-29T00:29:47;4.60;;;3.22;;
71667;SDS011;59504;54.806;9.640;2022-12-29T00:32:29;4.55;;;3.00;;
71667;SDS011;59504;54.806;9.640;2022-12-29T00:35:27;4.63;;;2.92;;
71667;SDS011;59504;54.806;9.640;2022-12-29T00:37:49;4.97;;;2.85;;
71667;SDS011;59504;54.806;9.640;2022-12-29T00:42:33;6.95;;;3.05;;
71667;SDS011;59504;54.806;9.640;2022-12-29T00:45:12;4.68;;;3.13;;
71667;SDS011;59504;54.806;9.640;2022-12-29T00:47:32;4.63;;;2.90;;
71667;SDS011;59504;54.806;9.640;2022-12-29T00:49:51;6.30;;;3.20;;
71667;SDS011;59504;54.806;9.640;2022-12-29T00:52:11;5.55;;;3.30;;
71667;SDS011;59504;54.806;9.640;2022-12-29T00:54:32;6.65;;;3.33;;
71667;SDS011;59504;54.806;9.640;2022-12-29T00:56:52;4.18;;;2.70;;
71667;SDS011;59504;54.806;9.640;2022-12-29T00:59:12;5.05;;;2.90;;
71667;SDS011;59504;54.806;9.640;2022-12-29T01:01:32;6.40;;;3.10;;
71667;SDS011;59504;54.806;9.640;2022-12-29T01:03:52;6.60;;;2.95;;
71667;SDS011;59504;54.806;9.640;2022-12-29T01:06:12;5.32;;;3.22;;
71667;SDS011;59504;54.806;9.640;2022-12-29T01:08:31;8.70;;;3.08;;
71667;SDS011;59504;54.806;9.640;2022-12-29T01:11:07;6.75;;;3.08;;
71667;SDS011;59504;54.806;9.640;2022-12-29T01:13:30;5.93;;;3.42;;
71667;SDS011;59504;54.806;9.640;2022-12-29T01:15:50;3.65;;;2.80;;
71667;SDS011;59504;54.806;9.640;2022-12-29T01:18:10;4.95;;;3.00;;
71667;SDS011;59504;54.806;9.640;2022-12-29T01:20:29;3.60;;;2.90;;
71667;SDS011;59504;54.806;9.640;2022-12-29T01:22:49;3.90;;;2.90;;
71667;SDS011;59504;54.806;9.640;2022-12-29T01:25:08;7.38;;;3.67;;
71667;SDS011;59504;54.806;9.640;2022-12-29T01:27:27;4.97;;;3.05;;
71667;SDS011;59504;54.806;9.640;2022-12-29T01:29:47;4.32;;;2.75;;
71667;SDS011;59504;54.806;9.640;2022-12-29T01:32:06;6.43;;;3.03;;
71667;SDS011;59504;54.806;9.640;2022-12-29T01:34:25;4.72;;;2.70;;
71667;SDS011;59504;54.806;9.640;2022-12-29T01:36:44;4.43;;;3.00;;
71667;SDS011;59504;54.806;9.640;2022-12-29T01:39:04;3.90;;;3.08;;
71667;SDS011;59504;54.806;9.640;2022-12-29T01:41:23;4.18;;;3.17;;
71667;SDS011;59504;54.806;9.640;2022-12-29T01:43:50;5.30;;;2.85;;
71667;SDS011;59504;54.806;9.640;2022-12-29T01:46:28;4.13;;;2.80;;
71667;SDS011;59504;54.806;9.640;2022-12-29T01:48:52;3.33;;;2.63;;
71667;SDS011;59504;54.806;9.640;2022-12-29T01:51:16;4.03;;;2.78;;
71667;SDS011;59504;54.806;9.640;2022-12-29T01:53:36;4.57;;;3.00;;
71667;SDS011;59504;54.806;9.640;2022-12-29T01:55:57;5.55;;;3.60;;
71667;SDS011;59504;54.806;9.640;2022-12-29T01:58:22;6.32;;;2.95;;
71667;SDS011;59504;54.806;9.640;2022-12-29T02:00:43;7.28;;;3.55;;
71667;SDS011;59504;54.806;9.640;2022-12-29T02:03:02;3.92;;;2.92;;
71667;SDS011;59504;54.806;9.640;2022-12-29T02:08:12;4.38;;;3.20;;
71667;SDS011;59504;54.806;9.640;2022-12-29T02:10:34;7.38;;;3.42;;
71667;SDS011;59504;54.806;9.640;2022-12-29T02:12:54;4.18;;;2.97;;
71667;SDS011;59504;54.806;9.640;2022-12-29T02:15:14;5.32;;;3.40;;
71667;SDS011;59504;54.806;9.640;2022-12-29T02:17:41;4.50;;;3.28;;
71667;SDS011;59504;54.806;9.640;2022-12-29T02:39:21;5.60;;;3.15;;
71667;SDS011;59504;54.806;9.640;2022-12-29T02:44:25;4.75;;;3.38;;
71667;SDS011;59504;54.806;9.640;2022-12-29T02:49:31;5.70;;;3.13;;
71667;SDS011;59504;54.806;9.640;2022-12-29T02:51:58;4.50;;;3.17;;
71667;SDS011;59504;54.806;9.640;2022-12-29T02:54:24;5.05;;;3.22;;
71667;SDS011;59504;54.806;9.640;2022-12-29T02:57:00;5.55;;;2.80;;
71667;SDS011;59504;54.806;9.640;2022-12-29T02:59:19;4.72;;;2.80;;
71667;SDS011;59504;54.806;9.640;2022-12-29T03:01:45;7.30;;;3.03;;
71667;SDS011;59504;54.806;9.640;2022-12-29T03:04:40;3.78;;;3.22;;
71667;SDS011;59504;54.806;9.640;2022-12-29T03:15:40;6.32;;;4.25;;
71667;SDS011;59504;54.806;9.640;2022-12-29T03:18:34;6.55;;;3.50;;
71667;SDS011;59504;54.806;9.640;2022-12-29T03:21:19;8.60;;;4.05;;
71667;SDS011;59504;54.806;9.640;2022-12-29T03:24:07;4.85;;;2.92;;
71667;SDS011;59504;54.806;9.640;2022-12-29T03:26:27;4.57;;;3.10;;
71667;SDS011;59504;54.806;9.640;2022-12-29T03:28:52;6.10;;;3.05;;
71667;SDS011;59504;54.806;9.640;2022-12-29T03:31:15;4.95;;;3.28;;
71667;SDS011;59504;54.806;9.640;2022-12-29T03:33:37;4.35;;;3.20;;
71667;SDS011;59504;54.806;9.640;2022-12-29T03:36:00;3.95;;;3.13;;
71667;SDS011;59504;54.806;9.640;2022-12-29T03:38:27;3.83;;;2.85;;
71667;SDS011;59504;54.806;9.640;2022-12-29T03:40:50;4.90;;;3.03;;
71667;SDS011;59504;54.806;9.640;2022-12-29T03:43:14;5.45;;;3.00;;
71667;SDS011;59504;54.806;9.640;2022-12-29T03:45:34;4.97;;;3.13;;
71667;SDS011;59504;54.806;9.640;2022-12-29T03:47:54;4.47;;;2.72;;
71667;SDS011;59504;54.806;9.640;2022-12-29T03:50:13;4.68;;;3.10;;
71667;SDS011;59504;54.806;9.640;2022-12-29T03:52:33;5.95;;;3.33;;
71667;SDS011;59504;54.806;9.640;2022-12-29T03:54:52;4.70;;;2.90;;
71667;SDS011;59504;54.806;9.640;2022-12-29T03:57:12;7.15;;;3.42;;
71667;SDS011;59504;54.806;9.640;2022-12-29T03:59:31;5.55;;;3.33;;
71667;SDS011;59504;54.806;9.640;2022-12-29T04:01:50;8.50;;;3.60;;
71667;SDS011;59504;54.806;9.640;2022-12-29T04:04:10;5.63;;;2.53;;
71667;SDS011;59504;54.806;9.640;2022-12-29T04:06:29;4.97;;;3.33;;
71667;SDS011;59504;54.806;9.640;2022-12-29T04:08:48;4.57;;;3.05;;
71667;SDS011;59504;54.806;9.640;2022-12-29T04:11:07;4.43;;;2.95;;
71667;SDS011;59504;54.806;9.640;2022-12-29T04:13:29;6.43;;;3.50;;
71667;SDS011;59504;54.806;9.640;2022-12-29T04:15:49;6.50;;;3.05;;
71667;SDS011;59504;54.806;9.640;2022-12-29T04:18:08;7.80;;;3.03;;
71667;SDS011;59504;54.806;9.640;2022-12-29T04:20:27;4.10;;;3.08;;
71667;SDS011;59504;54.806;9.640;2022-12-29T04:23:05;12.45;;;3.42;;
71667;SDS011;59504;54.806;9.640;2022-12-29T04:25:25;6.20;;;3.70;;
71667;SDS011;59504;54.806;9.640;2022-12-29T04:27:45;6.82;;;3.78;;
71667;SDS011;59504;54.806;9.640;2022-12-29T04:30:07;5.50;;;3.80;;
71667;SDS011;59504;54.806;9.640;2022-12-29T04:32:27;6.22;;;3.80;;
71667;SDS011;59504;54.806;9.640;2022-12-29T04:34:46;6.72;;;3.90;;
71667;SDS011;59504;54.806;9.640;2022-12-29T04:37:05;6.13;;;3.60;;
71667;SDS011;59504;54.806;9.640;2022-12-29T04:39:25;5.22;;;3.67;;
71667;SDS011;59504;54.806;9.640;2022-12-29T04:41:44;7.47;;;3.90;;
71667;SDS011;59504;54.806;9.640;2022-12-29T04:44:03;7.47;;;4.10;;
71667;SDS011;59504;54.806;9.640;2022-12-29T04:46:22;6.88;;;3.80;;
71667;SDS011;59504;54.806;9.640;2022-12-29T04:48:41;5.65;;;3.80;;
71667;SDS011;59504;54.806;9.640;2022-12-29T04:51:00;7.57;;;3.72;;
71667;SDS011;59504;54.806;9.640;2022-12-29T04:53:19;6.53;;;3.88;;
71667;SDS011;59504;54.806;9.640;2022-12-29T04:55:38;5.70;;;3.55;;
71667;SDS011;59504;54.806;9.640;2022-12-29T04:57:57;5.15;;;3.47;;
71667;SDS011;59504;54.806;9.640;2022-12-29T05:00:17;5.47;;;3.55;;
71667;SDS011;59504;54.806;9.640;2022-12-29T05:02:36;5.07;;;3.15;;
71667;SDS011;59504;54.806;9.640;2022-12-29T05:04:56;5.13;;;3.30;;
71667;SDS011;59504;54.806;9.640;2022-12-29T05:07:15;4.05;;;3.10;;
71667;SDS011;59504;54.806;9.640;2022-12-29T05:09:35;5.75;;;3.00;;
71667;SDS011;59504;54.806;9.640;2022-12-29T05:11:57;3.92;;;2.80;;
71667;SDS011;59504;54.806;9.640;2022-12-29T05:14:16;4.65;;;2.40;;
71667;SDS011;59504;54.806;9.640;2022-12-29T05:16:35;8.38;;;2.80;;
71667;SDS011;59504;54.806;9.640;2022-12-29T05:18:55;5.05;;;2.30;;
71667;SDS011;59504;54.806;9.640;2022-12-29T05:21:14;2.90;;;2.33;;
71667;SDS011;59504;54.806;9.640;2022-12-29T05:23:33;3.83;;;2.20;;
71667;SDS011;59504;54.806;9.640;2022-12-29T05:25:53;7.38;;;2.30;;
71667;SDS011;59504;54.806;9.640;2022-12-29T05:28:12;3.72;;;1.92;;
71667;SDS011;59504;54.806;9.640;2022-12-29T05:30:32;2.83;;;1.80;;
71667;SDS011;59504;54.806;9.640;2022-12-29T05:32:51;1.67;;;1.52;;
71667;SDS011;59504;54.806;9.640;2022-12-29T05:35:10;2.38;;;1.60;;
71667;SDS011;59504;54.806;9.640;2022-12-29T05:37:33;2.03;;;1.30;;
71667;SDS011;59504;54.806;9.640;2022-12-29T05:39:58;2.47;;;1.05;;
71667;SDS011;59504;54.806;9.640;2022-12-29T05:42:18;1.50;;;0.80;;
71667;SDS011;59504;54.806;9.640;2022-12-29T05:44:37;1.85;;;0.80;;
71667;SDS011;59504;54.806;9.640;2022-12-29T05:46:57;1.95;;;0.68;;
71667;SDS011;59504;54.806;9.640;2022-12-29T05:49:18;1.75;;;0.60;;
71667;SDS011;59504;54.806;9.640;2022-12-29T05:51:37;1.52;;;0.50;;
71667;SDS011;59504;54.806;9.640;2022-12-29T05:53:56;4.05;;;0.68;;
71667;SDS011;59504;54.806;9.640;2022-12-29T05:56:16;0.77;;;0.30;;
71667;SDS011;59504;54.806;9.640;2022-12-29T05:58:35;1.10;;;0.35;;
71667;SDS011;59504;54.806;9.640;2022-12-29T06:00:54;1.00;;;0.30;;
71667;SDS011;59504;54.806;9.640;2022-12-29T06:03:13;1.42;;;0.28;;
71667;SDS011;59504;54.806;9.640;2022-12-29T06:05:32;3.53;;;0.20;;
71667;SDS011;59504;54.806;9.640;2022-12-29T06:07:51;0.90;;;0.20;;
71667;SDS011;59504;54.806;9.640;2022-12-29T06:10:10;1.13;;;0.20;;
71667;SDS011;59504;54.806;9.640;2022-12-29T06:12:30;1.50;;;0.30;;
71667;SDS011;59504;54.806;9.640;2022-12-29T06:14:49;1.08;;;0.20;;
71667;SDS011;59504;54.806;9.640;2022-12-29T06:17:09;2.15;;;0.28;;
71667;SDS011;59504;54.806;9.640;2022-12-29T06:19:28;2.53;;;0.28;;
71667;SDS011;59504;54.806;9.640;2022-12-29T06:21:47;4.57;;;0.40;;
71667;SDS011;59504;54.806;9.640;2022-12-29T06:24:06;4.25;;;0.20;;
71667;SDS011;59504;54.806;9.640;2022-12-29T06:26:29;2.50;;;0.30;;
71667;SDS011;59504;54.806;9.640;2022-12-29T06:28:52;3.28;;;0.35;;
71667;SDS011;59504;54.806;9.640;2022-12-29T06:31:11;1.52;;;0.20;;
71667;SDS011;59504;54.806;9.640;2022-12-29T06:33:30;2.90;;;0.40;;
71667;SDS011;59504;54.806;9.640;2022-12-29T06:35:50;2.22;;;0.43;;
71667;SDS011;59504;54.806;9.640;2022-12-29T06:38:09;6.15;;;0.60;;
71667;SDS011;59504;54.806;9.640;2022-12-29T06:40:28;3.38;;;0.57;;
71667;SDS011;59504;54.806;9.640;2022-12-29T06:42:47;2.60;;;0.52;;
71667;SDS011;59504;54.806;9.640;2022-12-29T06:45:06;5.20;;;0.90;;
71667;SDS011;59504;54.806;9.640;2022-12-29T06:47:26;2.47;;;0.63;;
71667;SDS011;59504;54.806;9.640;2022-12-29T06:49:47;6.45;;;0.85;;
71667;SDS011;59504;54.806;9.640;2022-12-29T06:52:06;3.20;;;0.73;;
71667;SDS011;59504;54.806;9.640;2022-12-29T06:54:26;6.55;;;1.13;;
71667;SDS011;59504;54.806;9.640;2022-12-29T06:56:45;7.32;;;1.05;;
71667;SDS011;59504;54.806;9.640;2022-12-29T06:59:08;6.10;;;0.80;;
71667;SDS011;59504;54.806;9.640;2022-12-29T07:01:28;7.35;;;0.90;;
71667;SDS011;59504;54.806;9.640;2022-12-29T07:03:47;10.15;;;1.00;;
71667;SDS011;59504;54.806;9.640;2022-12-29T07:06:06;8.23;;;1.00;;
71667;SDS011;59504;54.806;9.640;2022-12-29T07:08:26;9.77;;;1.05;;
71667;SDS011;59504;54.806;9.640;2022-12-29T07:10:45;8.13;;;1.60;;
71667;SDS011;59504;54.806;9.640;2022-12-29T07:13:05;5.60;;;2.17;;
71667;SDS011;59504;54.806;9.640;2022-12-29T07:15:26;5.00;;;1.75;;
71667;SDS011;59504;54.806;9.640;2022-12-29T07:17:45;6.20;;;1.30;;
71667;SDS011;59504;54.806;9.640;2022-12-29T07:20:08;6.95;;;1.25;;
71667;SDS011;59504;54.806;9.640;2022-12-29T07:22:30;5.93;;;1.38;;
71667;SDS011;59504;54.806;9.640;2022-12-29T07:24:49;3.13;;;0.90;;
71667;SDS011;59504;54.806;9.640;2022-12-29T07:27:08;5.38;;;1.13;;
71667;SDS011;59504;54.806;9.640;2022-12-29T07:29:28;6.22;;;1.15;;
71667;SDS011;59504;54.806;9.640;2022-12-29T07:31:47;5.07;;;1.00;;
71667;SDS011;59504;54.806;9.640;2022-12-29T07:34:07;3.90;;;1.00;;
71667;SDS011;59504;54.806;9.640;2022-12-29T07:36:27;6.38;;;1.38;;
71667;SDS011;59504;54.806;9.640;2022-12-29T07:38:46;5.78;;;1.08;;
71667;SDS011;59504;54.806;9.640;2022-12-29T07:41:05;6.18;;;1.08;;
71667;SDS011;59504;54.806;9.640;2022-12-29T07:43:24;8.77;;;1.27;;
71667;SDS011;59504;54.806;9.640;2022-12-29T07:45:43;8.80;;;1.58;;
71667;SDS011;59504;54.806;9.640;2022-12-29T07:48:03;16.27;;;1.88;;
71667;SDS011;59504;54.806;9.640;2022-12-29T07:50:26;5.63;;;1.30;;
71667;SDS011;59504;54.806;9.640;2022-12-29T07:52:45;11.30;;;1.50;;
71667;SDS011;59504;54.806;9.640;2022-12-29T07:55:06;9.10;;;1.90;;
71667;SDS011;59504;54.806;9.640;2022-12-29T07:57:26;16.95;;;1.88;;
71667;SDS011;59504;54.806;9.640;2022-12-29T07:59:45;12.43;;;1.85;;
71667;SDS011;59504;54.806;9.640;2022-12-29T08:02:04;14.07;;;1.52;;
71667;SDS011;59504;54.806;9.640;2022-12-29T08:04:23;12.55;;;1.65;;
71667;SDS011;59504;54.806;9.640;2022-12-29T08:06:42;16.00;;;2.10;;
71667;SDS011;59504;54.806;9.640;2022-12-29T08:09:01;14.77;;;2.08;;
71667;SDS011;59504;54.806;9.640;2022-12-29T08:11:20;12.18;;;1.85;;
71667;SDS011;59504;54.806;9.640;2022-12-29T08:13:39;17.13;;;2.10;;
71667;SDS011;59504;54.806;9.640;2022-12-29T08:15:58;14.45;;;2.28;;
71667;SDS011;59504;54.806;9.640;2022-12-29T08:18:17;16.73;;;1.98;;
71667;SDS011;59504;54.806;9.640;2022-12-29T08:20:37;15.20;;;2.33;;
71667;SDS011;59504;54.806;9.640;2022-12-29T08:22:56;16.17;;;1.90;;
71667;SDS011;59504;54.806;9.640;2022-12-29T08:25:15;14.95;;;1.90;;
71667;SDS011;59504;54.806;9.640;2022-12-29T08:27:34;12.20;;;2.17;;
71667;SDS011;59504;54.806;9.640;2022-12-29T08:29:57;13.63;;;1.90;;
71667;SDS011;59504;54.806;9.640;2022-12-29T08:32:16;17.98;;;2.05;;
71667;SDS011;59504;54.806;9.640;2022-12-29T08:34:36;23.27;;;2.35;;
71667;SDS011;59504;54.806;9.640;2022-12-29T08:36:55;18.08;;;2.35;;
71667;SDS011;59504;54.806;9.640;2022-12-29T08:39:18;18.85;;;2.60;;
71667;SDS011;59504;54.806;9.640;2022-12-29T08:41:37;11.02;;;1.75;;
71667;SDS011;59504;54.806;9.640;2022-12-29T08:43:56;14.80;;;1.95;;
71667;SDS011;59504;54.806;9.640;2022-12-29T08:46:15;17.38;;;2.40;;
71667;SDS011;59504;54.806;9.640;2022-12-29T08:48:35;11.68;;;2.05;;
71667;SDS011;59504;54.806;9.640;2022-12-29T08:50:54;16.83;;;2.28;;
71667;SDS011;59504;54.806;9.640;2022-12-29T08:53:13;12.13;;;2.00;;
71667;SDS011;59504;54.806;9.640;2022-12-29T08:55:32;16.17;;;1.98;;
71667;SDS011;59504;54.806;9.640;2022-12-29T08:57:51;10.30;;;1.55;;
71667;SDS011;59504;54.806;9.640;2022-12-29T09:00:11;19.95;;;2.20;;
71667;SDS011;59504;54.806;9.640;2022-12-29T09:02:30;12.50;;;1.83;;
71667;SDS011;59504;54.806;9.640;2022-12-29T09:04:50;18.55;;;2.72;;
71667;SDS011;59504;54.806;9.640;2022-12-29T09:07:09;14.82;;;2.67;;
71667;SDS011;59504;54.806;9.640;2022-12-29T09:09:35;13.80;;;1.92;;
71667;SDS011;59504;54.806;9.640;2022-12-29T09:11:54;11.15;;;1.60;;
71667;SDS011;59504;54.806;9.640;2022-12-29T09:14:13;14.68;;;1.90;;
71667;SDS011;59504;54.806;9.640;2022-12-29T09:16:33;18.90;;;2.33;;
71667;SDS011;59504;54.806;9.640;2022-12-29T09:18:53;19.52;;;2.60;;
71667;SDS011;59504;54.806;9.640;2022-12-29T09:21:12;18.45;;;2.00;;
71667;SDS011;59504;54.806;9.640;2022-12-29T09:23:40;15.27;;;2.38;;
71667;SDS011;59504;54.806;9.640;2022-12-29T09:26:07;16.58;;;2.15;;
71667;SDS011;59504;54.806;9.640;2022-12-29T09:28:28;15.05;;;2.30;;
71667;SDS011;59504;54.806;9.640;2022-12-29T09:30:48;21.88;;;2.47;;
71667;SDS011;59504;54.806;9.640;2022-12-29T09:33:07;17.83;;;2.28;;
71667;SDS011;59504;54.806;9.640;2022-12-29T09:35:26;19.90;;;2.72;;
71667;SDS011;59504;54.806;9.640;2022-12-29T09:37:45;14.20;;;2.28;;
71667;SDS011;59504;54.806;9.640;2022-12-29T09:40:05;21.55;;;2.20;;
71667;SDS011;59504;54.806;9.640;2022-12-29T09:42:40;25.30;;;2.25;;
71667;SDS011;59504;54.806;9.640;2022-12-29T09:47:37;18.27;;;2.47;;
71667;SDS011;59504;54.806;9.640;2022-12-29T09:50:05;13.63;;;2.38;;
71667;SDS011;59504;54.806;9.640;2022-12-29T09:52:35;19.75;;;2.42;;
71667;SDS011;59504;54.806;9.640;2022-12-29T09:55:21;15.90;;;2.38;;
71667;SDS011;59504;54.806;9.640;2022-12-29T09:57:53;19.60;;;2.55;;
71667;SDS011;59504;54.806;9.640;2022-12-29T10:00:20;19.00;;;2.90;;
71667;SDS011;59504;54.806;9.640;2022-12-29T10:05:46;24.20;;;2.67;;
71667;SDS011;59504;54.806;9.640;2022-12-29T10:08:30;15.10;;;2.58;;
71667;SDS011;59504;54.806;9.640;2022-12-29T10:11:24;23.48;;;2.92;;
71667;SDS011;59504;54.806;9.640;2022-12-29T10:19:39;18.38;;;2.78;;
71667;SDS011;59504;54.806;9.640;2022-12-29T10:22:29;16.15;;;2.13;;
71667;SDS011;59504;54.806;9.640;2022-12-29T10:25:30;30.73;;;3.47;;
71667;SDS011;59504;54.806;9.640;2022-12-29T10:27:50;27.05;;;3.10;;
71667;SDS011;59504;54.806;9.640;2022-12-29T10:30:12;24.20;;;3.28;;
71667;SDS011;59504;54.806;9.640;2022-12-29T10:32:34;18.77;;;2.75;;
71667;SDS011;59504;54.806;9.640;2022-12-29T10:35:23;19.60;;;2.90;;
71667;SDS011;59504;54.806;9.640;2022-12-29T10:49:26;17.60;;;2.03;;
71667;SDS011;59504;54.806;9.640;2022-12-29T10:51:48;10.00;;;1.88;;
71667;SDS011;59504;54.806;9.640;2022-12-29T10:54:11;17.45;;;2.53;;
71667;SDS011;59504;54.806;9.640;2022-12-29T10:56:40;19.05;;;2.47;;
71667;SDS011;59504;54.806;9.640;2022-12-29T10:59:25;20.42;;;2.28;;
71667;SDS011;59504;54.806;9.640;2022-12-29T11:07:52;15.35;;;2.20;;
71667;SDS011;59504;54.806;9.640;2022-12-29T11:10:19;21.88;;;2.13;;
71667;SDS011;59504;54.806;9.640;2022-12-29T11:13:26;17.02;;;2.80;;
71667;SDS011;59504;54.806;9.640;2022-12-29T11:16:05;16.15;;;2.50;;
71667;SDS011;59504;54.806;9.640;2022-12-29T11:18:26;16.48;;;1.95;;
71667;SDS011;59504;54.806;9.640;2022-12-29T11:20:52;16.52;;;2.38;;
71667;SDS011;59504;54.806;9.640;2022-12-29T11:26:06;14.23;;;1.98;;
71667;SDS011;59504;54.806;9.640;2022-12-29T11:28:29;16.92;;;2.13;;
71667;SDS011;59504;54.806;9.640;2022-12-29T11:30:58;21.35;;;2.92;;
71667;SDS011;59504;54.806;9.640;2022-12-29T11:33:27;15.20;;;2.40;;
71667;SDS011;59504;54.806;9.640;2022-12-29T11:35:57;16.65;;;2.47;;
71667;SDS011;59504;54.806;9.640;2022-12-29T11:38:20;17.05;;;2.58;;
71667;SDS011;59504;54.806;9.640;2022-12-29T11:40:43;13.20;;;2.28;;
71667;SDS011;59504;54.806;9.640;2022-12-29T11:43:02;12.68;;;2.55;;
71667;SDS011;59504;54.806;9.640;2022-12-29T11:45:23;14.00;;;1.83;;
71667;SDS011;59504;54.806;9.640;2022-12-29T11:48:01;21.58;;;2.38;;
71667;SDS011;59504;54.806;9.640;2022-12-29T11:50:41;17.92;;;2.00;;
71667;SDS011;59504;54.806;9.640;2022-12-29T11:53:15;16.70;;;2.60;;
71667;SDS011;59504;54.806;9.640;2022-12-29T12:01:45;18.25;;;2.53;;
71667;SDS011;59504;54.806;9.640;2022-12-29T12:04:16;24.42;;;3.30;;
71667;SDS011;59504;54.806;9.640;2022-12-29T12:13:17;25.80;;;2.47;;
71667;SDS011;59504;54.806;9.640;2022-12-29T12:24:42;18.38;;;1.88;;
71667;SDS011;59504;54.806;9.640;2022-12-29T12:27:30;14.90;;;2.47;;
71667;SDS011;59504;54.806;9.640;2022-12-29T12:35:26;16.00;;;2.10;;
71667;SDS011;59504;54.806;9.640;2022-12-29T12:40:56;14.85;;;2.15;;
71667;SDS011;59504;54.806;9.640;2022-12-29T13:00:14;10.75;;;1.48;;
71667;SDS011;59504;54.806;9.640;2022-12-29T13:17:47;9.27;;;1.67;;
71667;SDS011;59504;54.806;9.640;2022-12-29T13:20:52;14.07;;;1.90;;
71667;SDS011;59504;54.806;9.640;2022-12-29T13:27:00;18.83;;;2.78;;
71667;SDS011;59504;54.806;9.640;2022-12-29T13:30:03;18.23;;;2.58;;
71667;SDS011;59504;54.806;9.640;2022-12-29T13:32:39;17.42;;;2.53;;
71667;SDS011;59504;54.806;9.640;2022-12-29T13:40:52;14.32;;;2.40;;
71667;SDS011;59504;54.806;9.640;2022-12-29T13:43:19;15.75;;;2.35;;
71667;SDS011;59504;54.806;9.640;2022-12-29T13:45:40;17.60;;;3.15;;
71667;SDS011;59504;54.806;9.640;2022-12-29T13:48:21;19.15;;;2.60;;
71667;SDS011;59504;54.806;9.640;2022-12-29T13:50:52;26.95;;;3.10;;
71667;SDS011;59504;54.806;9.640;2022-12-29T13:55:56;30.33;;;3.80;;
71667;SDS011;59504;54.806;9.640;2022-12-29T14:01:19;37.53;;;4.50;;
71667;SDS011;59504;54.806;9.640;2022-12-29T14:08:47;35.88;;;4.30;;
71667;SDS011;59504;54.806;9.640;2022-12-29T14:11:14;42.28;;;5.20;;
71667;SDS011;59504;54.806;9.640;2022-12-29T14:13:39;45.33;;;4.85;;
71667;SDS011;59504;54.806;9.640;2022-12-29T14:16:04;44.92;;;5.43;;
71667;SDS011;59504;54.806;9.640;2022-12-29T14:18:28;36.47;;;4.22;;
71667;SDS011;59504;54.806;9.640;2022-12-29T14:23:26;30.05;;;4.63;;
71667;SDS011;59504;54.806;9.640;2022-12-29T14:28:23;34.90;;;4.55;;
71667;SDS011;59504;54.806;9.640;2022-12-29T14:33:37;46.58;;;5.55;;
71667;SDS011;59504;54.806;9.640;2022-12-29T14:35:56;41.85;;;5.32;;
71667;SDS011;59504;54.806;9.640;2022-12-29T14:38:36;43.80;;;4.75;;
71667;SDS011;59504;54.806;9.640;2022-12-29T14:41:18;41.38;;;4.78;;
71667;SDS011;59504;54.806;9.640;2022-12-29T14:43:54;49.47;;;5.30;;
71667;SDS011;59504;54.806;9.640;2022-12-29T14:46:45;30.27;;;4.93;;
71667;SDS011;59504;54.806;9.640;2022-12-29T14:49:08;41.53;;;5.70;;
71667;SDS011;59504;54.806;9.640;2022-12-29T14:51:35;41.30;;;6.20;;
71667;SDS011;59504;54.806;9.640;2022-12-29T14:53:55;32.00;;;4.60;;
71667;SDS011;59504;54.806;9.640;2022-12-29T14:56:15;38.95;;;4.60;;
71667;SDS011;59504;54.806;9.640;2022-12-29T14:58:58;34.50;;;4.03;;
71667;SDS011;59504;54.806;9.640;2022-12-29T15:03:46;30.33;;;4.35;;
71667;SDS011;59504;54.806;9.640;2022-12-29T15:06:11;24.23;;;3.60;;
71667;SDS011;59504;54.806;9.640;2022-12-29T15:08:59;23.90;;;3.60;;
71667;SDS011;59504;54.806;9.640;2022-12-29T15:13:55;24.60;;;2.67;;
71667;SDS011;59504;54.806;9.640;2022-12-29T15:19:00;22.48;;;2.80;;
71667;SDS011;59504;54.806;9.640;2022-12-29T15:21:23;32.50;;;3.58;;
71667;SDS011;59504;54.806;9.640;2022-12-29T15:23:44;26.20;;;3.85;;
71667;SDS011;59504;54.806;9.640;2022-12-29T15:26:05;27.83;;;3.70;;
71667;SDS011;59504;54.806;9.640;2022-12-29T15:28:26;26.15;;;3.47;;
71667;SDS011;59504;54.806;9.640;2022-12-29T15:30:55;26.83;;;3.58;;
71667;SDS011;59504;54.806;9.640;2022-12-29T15:33:21;23.42;;;3.78;;
71667;SDS011;59504;54.806;9.640;2022-12-29T15:35:42;31.20;;;4.50;;
71667;SDS011;59504;54.806;9.640;2022-12-29T15:38:14;33.42;;;4.53;;
71667;SDS011;59504;54.806;9.640;2022-12-29T15:40:39;31.42;;;3.75;;
71667;SDS011;59504;54.806;9.640;2022-12-29T15:43:14;36.13;;;4.20;;
71667;SDS011;59504;54.806;9.640;2022-12-29T15:45:37;29.45;;;3.75;;
71667;SDS011;59504;54.806;9.640;2022-12-29T15:47:57;29.85;;;4.13;;
71667;SDS011;59504;54.806;9.640;2022-12-29T15:50:24;27.27;;;3.55;;
71667;SDS011;59504;54.806;9.640;2022-12-29T15:52:54;33.17;;;4.07;;
71667;SDS011;59504;54.806;9.640;2022-12-29T15:55:19;33.40;;;3.60;;
71667;SDS011;59504;54.806;9.640;2022-12-29T15:57:48;26.33;;;3.88;;
71667;SDS011;59504;54.806;9.640;2022-12-29T16:00:20;21.17;;;3.70;;
71667;SDS011;59504;54.806;9.640;2022-12-29T16:02:44;31.05;;;4.22;;
71667;SDS011;59504;54.806;9.640;2022-12-29T16:05:08;34.85;;;4.13;;
71667;SDS011;59504;54.806;9.640;2022-12-29T16:07:37;29.20;;;3.47;;
71667;SDS011;59504;54.806;9.640;2022-12-29T16:09:57;27.45;;;4.10;;
71667;SDS011;59504;54.806;9.640;2022-12-29T16:12:19;21.63;;;3.28;;
71667;SDS011;59504;54.806;9.640;2022-12-29T16:14:47;30.67;;;6.75;;
71667;SDS011;59504;54.806;9.640;2022-12-29T16:17:13;31.45;;;5.85;;
71667;SDS011;59504;54.806;9.640;2022-12-29T16:19:39;26.80;;;3.85;;
71667;SDS011;59504;54.806;9.640;2022-12-29T16:21:59;32.00;;;4.40;;
71667;SDS011;59504;54.806;9.640;2022-12-29T16:24:22;33.83;;;4.82;;
71667;SDS011;59504;54.806;9.640;2022-12-29T16:27:27;33.00;;;4.22;;
71667;SDS011;59504;54.806;9.640;2022-12-29T16:29:39;33.58;;;3.88;;
71667;SDS011;59504;54.806;9.640;2022-12-29T16:31:59;35.28;;;4.25;;
71667;SDS011;59504;54.806;9.640;2022-12-29T16:34:23;26.33;;;3.50;;
71667;SDS011;59504;54.806;9.640;2022-12-29T16:41:44;35.92;;;4.00;;
71667;SDS011;59504;54.806;9.640;2022-12-29T16:49:50;32.60;;;3.40;;
71667;SDS011;59504;54.806;9.640;2022-12-29T16:54:36;30.00;;;3.20;;
71667;SDS011;59504;54.806;9.640;2022-12-29T16:56:57;25.60;;;3.20;;
71667;SDS011;59504;54.806;9.640;2022-12-29T16:59:51;30.38;;;3.78;;
71667;SDS011;59504;54.806;9.640;2022-12-29T17:02:07;26.75;;;3.88;;
71667;SDS011;59504;54.806;9.640;2022-12-29T17:04:34;30.88;;;3.75;;
71667;SDS011;59504;54.806;9.640;2022-12-29T17:06:54;21.65;;;2.90;;
71667;SDS011;59504;54.806;9.640;2022-12-29T17:09:16;27.73;;;3.28;;
71667;SDS011;59504;54.806;9.640;2022-12-29T17:11:47;27.80;;;3.38;;
71667;SDS011;59504;54.806;9.640;2022-12-29T17:16:49;22.63;;;2.97;;
71667;SDS011;59504;54.806;9.640;2022-12-29T17:19:11;23.92;;;2.95;;
71667;SDS011;59504;54.806;9.640;2022-12-29T17:21:35;25.20;;;3.72;;
71667;SDS011;59504;54.806;9.640;2022-12-29T17:23:55;24.52;;;2.63;;
71667;SDS011;59504;54.806;9.640;2022-12-29T17:26:14;20.38;;;2.97;;
71667;SDS011;59504;54.806;9.640;2022-12-29T17:28:33;26.52;;;3.40;;
71667;SDS011;59504;54.806;9.640;2022-12-29T17:30:52;23.73;;;3.30;;
71667;SDS011;59504;54.806;9.640;2022-12-29T17:33:16;17.35;;;2.80;;